Terminal Aerodrome Forecast
Issued by NWS Quad Cities IA IL

Home | Current Version | Previous Version | Text Only | Print | Product List | Glossary On
Versions: 1 2 3 4 5 6 7 8 9 10 11 12 13 14 15 16 17 18 19 20
000
FTUS43 KDVN 202326
TAFDBQ
TAF
KDBQ 202326Z 2100/2124 17010KT P6SM BKN150
     FM210300 18013KT P6SM SCT120 BKN250 WS018/21045KT
     FM211500 18017G23KT P6SM BKN100
     FM212100 18017G25KT P6SM BKN040=

USA.gov is the U.S. government's official web portal to all federal, state and local government web resources and services.